createdAt,value
2023-04-09T00:00:18.457Z,12.57
2023-04-09T00:01:19.512Z,12.61
2023-04-09T00:01:59.440Z,12.67
2023-04-09T00:02:46.805Z,12.61
2023-04-09T00:03:40.687Z,12.73
2023-04-09T00:04:34.501Z,12.52
2023-04-09T00:05:28.405Z,12.73
2023-04-09T00:06:24.592Z,12.74
2023-04-09T00:07:18.496Z,12.78
2023-04-09T00:08:05.466Z,12.64
2023-04-09T00:08:39.531Z,12.74
2023-04-09T00:09:27.460Z,12.80
2023-04-09T00:10:01.541Z,12.79
2023-04-09T00:10:48.390Z,12.71
2023-04-09T00:11:22.656Z,12.63
2023-04-09T00:12:10.431Z,12.72
2023-04-09T00:12:44.577Z,12.87
2023-04-09T00:13:35.446Z,12.90
2023-04-09T00:14:18.534Z,12.91
2023-04-09T00:14:58.448Z,12.84
2023-04-09T00:15:38.470Z,12.93
2023-04-09T00:16:18.485Z,12.95
2023-04-09T00:17:12.463Z,12.94
2023-04-09T00:18:06.459Z,13.07
2023-04-09T00:18:46.434Z,13.08
2023-04-09T00:19:26.551Z,13.14
2023-04-09T00:20:07.433Z,13.16
2023-04-09T00:20:47.463Z,13.09
2023-04-09T00:21:28.435Z,12.96
2023-04-09T00:22:08.483Z,13.07
2023-04-09T00:22:48.431Z,13.07
2023-04-09T00:23:28.480Z,13.17
2023-04-09T00:24:08.420Z,13.16
2023-04-09T00:24:48.515Z,13.19
2023-04-09T00:25:29.395Z,13.25
2023-04-09T00:26:09.556Z,13.27
2023-04-09T00:26:49.428Z,13.32
2023-04-09T00:27:29.507Z,13.38
2023-04-09T00:28:10.393Z,13.40
2023-04-09T00:28:50.720Z,13.29
2023-04-09T00:29:31.457Z,13.31
2023-04-09T00:30:12.534Z,13.38
2023-04-09T00:30:52.411Z,13.45
2023-04-09T00:31:33.278Z,13.58
2023-04-09T00:32:14.423Z,13.52
2023-04-09T00:32:54.901Z,13.53
2023-04-09T00:33:35.454Z,13.41
2023-04-09T00:34:15.854Z,13.37
2023-04-09T00:34:56.390Z,13.26
2023-04-09T00:35:36.601Z,13.43
2023-04-09T00:36:16.437Z,13.46
2023-04-09T00:36:56.477Z,13.27
2023-04-09T00:37:37.390Z,13.50
2023-04-09T00:38:17.582Z,13.51
2023-04-09T00:38:58.505Z,13.47
2023-04-09T00:39:38.537Z,13.56
2023-04-09T00:40:19.395Z,13.61
2023-04-09T00:40:59.515Z,13.48
2023-04-09T00:41:40.437Z,13.68
2023-04-09T00:42:21.658Z,13.57
2023-04-09T00:43:02.430Z,13.72
2023-04-09T00:43:42.519Z,13.67
2023-04-09T00:44:22.401Z,13.72
2023-04-09T00:45:02.533Z,13.68
2023-04-09T00:45:43.500Z,13.66
2023-04-09T00:46:24.491Z,13.67
2023-04-09T00:47:06.417Z,13.62
2023-04-09T00:47:46.798Z,13.62
2023-04-09T00:48:26.406Z,13.67
2023-04-09T00:49:03.677Z,13.76
2023-04-09T00:49:44.363Z,13.73
2023-04-09T00:50:24.532Z,13.69
2023-04-09T00:51:04.414Z,13.75
2023-04-09T00:51:44.451Z,13.79
2023-04-09T00:52:24.376Z,13.76
2023-04-09T00:53:04.465Z,13.74
2023-04-09T00:53:45.386Z,13.73
2023-04-09T00:54:25.488Z,13.79
2023-04-09T00:55:13.384Z,13.67
2023-04-09T00:55:53.536Z,13.64
2023-04-09T00:56:34.389Z,13.61
2023-04-09T00:57:14.461Z,13.46
2023-04-09T00:57:55.388Z,13.42
2023-04-09T00:58:35.786Z,13.48
2023-04-09T00:59:15.394Z,13.50
2023-04-09T00:59:55.510Z,13.58
2023-04-09T01:00:35.413Z,13.58
2023-04-09T01:01:15.592Z,13.62
2023-04-09T01:01:56.475Z,13.56
2023-04-09T01:02:36.748Z,13.53
2023-04-09T01:03:18.448Z,13.59
2023-04-09T01:03:58.460Z,13.62
2023-04-09T01:04:39.368Z,13.53
2023-04-09T01:05:20.455Z,13.59
2023-04-09T01:06:17.428Z,13.69
2023-04-09T01:07:15.430Z,13.66
2023-04-09T01:08:45.363Z,13.72
2023-04-09T01:09:49.412Z,13.68
2023-04-09T01:10:59.394Z,13.73
2023-04-09T01:12:15.419Z,13.81
2023-04-09T01:13:26.394Z,13.85
2023-04-09T01:14:38.513Z,13.76
2023-04-09T01:15:43.470Z,13.87
2023-04-09T01:16:37.435Z,13.89
2023-04-09T01:17:53.502Z,13.82
2023-04-09T01:19:13.411Z,13.85
2023-04-09T01:20:32.331Z,13.91
2023-04-09T01:21:31.382Z,13.80
2023-04-09T01:23:06.404Z,14.04
2023-04-09T01:24:31.315Z,13.89
2023-04-09T01:25:55.515Z,13.92
2023-04-09T01:26:59.329Z,13.87
2023-04-09T01:28:07.330Z,13.77
2023-04-09T01:29:07.369Z,13.78
2023-04-09T01:30:04.382Z,13.87
2023-04-09T01:31:07.575Z,13.81
2023-04-09T01:32:02.333Z,13.59
2023-04-09T01:32:57.400Z,13.80
2023-04-09T01:33:38.374Z,13.76
2023-04-09T01:34:18.425Z,13.72
2023-04-09T01:34:59.623Z,13.82
2023-04-09T01:35:39.394Z,13.79
2023-04-09T01:36:20.336Z,13.82
2023-04-09T01:37:04.461Z,13.66
2023-04-09T01:37:45.347Z,13.69
2023-04-09T01:38:27.430Z,13.67
2023-04-09T01:39:08.347Z,13.59
2023-04-09T01:39:49.436Z,13.69
2023-04-09T01:40:30.434Z,13.75
2023-04-09T01:41:11.412Z,13.60
2023-04-09T01:41:52.326Z,13.69
2023-04-09T01:42:32.448Z,13.59
2023-04-09T01:43:14.339Z,13.67
2023-04-09T01:43:57.475Z,13.67
2023-04-09T01:44:38.448Z,13.52
2023-04-09T01:45:18.420Z,13.55
2023-04-09T01:45:59.431Z,13.56
2023-04-09T01:46:40.461Z,13.36
2023-04-09T01:47:20.323Z,13.37
2023-04-09T01:48:01.608Z,13.24
2023-04-09T01:48:42.308Z,13.28
2023-04-09T01:49:23.514Z,13.26
2023-04-09T01:50:04.362Z,13.35
2023-04-09T01:50:44.494Z,13.33
2023-04-09T01:51:25.315Z,13.26
2023-04-09T01:52:05.439Z,13.27
2023-04-09T01:52:46.329Z,13.22
2023-04-09T01:53:28.457Z,13.06
2023-04-09T01:54:11.322Z,13.00
2023-04-09T01:54:51.410Z,13.06
2023-04-09T01:55:32.358Z,12.87
2023-04-09T01:56:13.431Z,13.00
2023-04-09T01:56:55.343Z,13.01
2023-04-09T01:57:35.599Z,13.09
2023-04-09T01:58:16.328Z,13.13
2023-04-09T01:58:56.370Z,13.16
2023-04-09T01:59:36.300Z,13.18
2023-04-09T02:00:17.373Z,13.18
2023-04-09T02:01:00.369Z,13.15
2023-04-09T02:01:49.655Z,13.20
2023-04-09T02:03:10.497Z,13.25
2023-04-09T02:04:16.307Z,13.29
2023-04-09T02:05:12.327Z,13.35
2023-04-09T02:06:37.344Z,13.33
2023-04-09T02:07:55.383Z,13.29
2023-04-09T02:08:50.513Z,13.43
2023-04-09T02:09:45.305Z,13.14
2023-04-09T02:10:41.458Z,13.37
2023-04-09T02:11:37.398Z,13.44
2023-04-09T02:12:32.298Z,13.49
2023-04-09T02:13:29.285Z,13.43
2023-04-09T02:14:24.269Z,13.42
2023-04-09T02:15:20.320Z,13.41
2023-04-09T02:16:15.473Z,13.49
2023-04-09T02:17:03.341Z,13.33
2023-04-09T02:17:37.436Z,13.51
2023-04-09T02:18:44.346Z,13.51
2023-04-09T02:19:18.373Z,13.42
2023-04-09T02:20:05.295Z,13.37
2023-04-09T02:20:39.367Z,13.48
2023-04-09T02:21:26.299Z,13.43
2023-04-09T02:22:00.400Z,13.42
2023-04-09T02:22:40.570Z,13.53
2023-04-09T02:23:23.420Z,13.55
2023-04-09T02:24:03.330Z,13.49
2023-04-09T02:24:43.353Z,13.48
2023-04-09T02:25:23.276Z,13.48
2023-04-09T02:26:03.350Z,13.51
2023-04-09T02:26:43.330Z,13.56
2023-04-09T02:27:23.350Z,13.58
2023-04-09T02:28:03.355Z,13.60
2023-04-09T02:28:43.370Z,13.60
2023-04-09T02:29:23.277Z,13.49
2023-04-09T02:30:04.028Z,13.54
2023-04-09T02:30:44.323Z,13.53
2023-04-09T02:31:24.645Z,13.55
2023-04-09T02:32:04.309Z,13.44
2023-04-09T02:32:44.430Z,13.33
2023-04-09T02:33:24.313Z,13.29
2023-04-09T02:34:04.390Z,13.32
2023-04-09T02:34:44.270Z,13.16
2023-04-09T02:35:24.454Z,13.38
2023-04-09T02:36:04.309Z,13.39
2023-04-09T02:36:44.339Z,13.29
2023-04-09T02:37:25.264Z,13.36
2023-04-09T02:38:05.424Z,13.38
2023-04-09T02:38:48.312Z,13.34
2023-04-09T02:39:28.379Z,13.36
2023-04-09T02:40:08.268Z,13.34
2023-04-09T02:40:48.337Z,13.32
2023-04-09T02:41:28.279Z,13.25
2023-04-09T02:42:08.367Z,13.08
2023-04-09T02:42:48.310Z,13.02
2023-04-09T02:43:28.395Z,13.05
2023-04-09T02:44:08.288Z,13.01
2023-04-09T02:44:48.410Z,13.06
2023-04-09T02:45:28.284Z,12.96
2023-04-09T02:46:08.631Z,12.97
2023-04-09T02:46:49.620Z,12.97
2023-04-09T02:47:30.535Z,12.87
2023-04-09T02:48:11.286Z,12.88
2023-04-09T02:48:51.606Z,12.76
2023-04-09T02:49:32.269Z,12.81
2023-04-09T02:50:13.390Z,12.87
2023-04-09T02:50:53.294Z,12.80
2023-04-09T02:51:34.332Z,12.80
2023-04-09T02:52:17.319Z,12.82
2023-04-09T02:52:57.378Z,12.73
2023-04-09T02:53:37.248Z,12.71
2023-04-09T02:54:17.447Z,12.73
2023-04-09T02:54:58.352Z,12.71
2023-04-09T02:55:38.349Z,12.68
2023-04-09T02:56:18.354Z,12.66
2023-04-09T02:56:58.391Z,12.64
2023-04-09T02:57:40.271Z,12.63
2023-04-09T02:58:20.419Z,12.68
2023-04-09T02:59:00.333Z,12.64
2023-04-09T02:59:40.733Z,12.58
2023-04-09T03:00:21.294Z,12.40
2023-04-09T03:01:01.405Z,12.47
2023-04-09T03:01:41.350Z,12.51
2023-04-09T03:02:22.619Z,12.34
2023-04-09T03:03:02.363Z,12.49
2023-04-09T03:03:43.118Z,12.42
2023-04-09T03:04:23.384Z,12.28
2023-04-09T03:05:03.371Z,12.34
2023-04-09T03:05:44.338Z,12.40
2023-04-09T03:06:25.407Z,12.40
2023-04-09T03:07:05.257Z,12.43
2023-04-09T03:07:45.380Z,12.45
2023-04-09T03:08:25.257Z,12.39
2023-04-09T03:09:05.334Z,12.46
2023-04-09T03:09:45.299Z,12.42
2023-04-09T03:10:25.470Z,12.51
2023-04-09T03:11:05.274Z,12.55
2023-04-09T03:11:45.340Z,12.52
2023-04-09T03:12:25.299Z,12.55
2023-04-09T03:13:05.321Z,12.53
2023-04-09T03:13:45.256Z,12.59
2023-04-09T03:14:25.408Z,12.65
2023-04-09T03:15:05.302Z,12.59
2023-04-09T03:15:45.513Z,12.61
2023-04-09T03:16:25.403Z,12.72
2023-04-09T03:17:19.257Z,12.70
2023-04-09T03:18:13.247Z,12.78
2023-04-09T03:19:07.226Z,12.87
2023-04-09T03:20:01.256Z,12.86
2023-04-09T03:20:55.245Z,12.99
2023-04-09T03:21:42.247Z,12.96
2023-04-09T03:22:16.334Z,12.99
2023-04-09T03:23:03.229Z,13.05
2023-04-09T03:23:37.380Z,12.98
2023-04-09T03:24:24.275Z,13.03
2023-04-09T03:24:58.331Z,13.06
2023-04-09T03:25:45.229Z,12.98
2023-04-09T03:26:19.332Z,12.91
2023-04-09T03:27:06.304Z,13.01
2023-04-09T03:27:40.334Z,13.00
2023-04-09T03:28:28.230Z,12.96
2023-04-09T03:29:02.348Z,13.05
2023-04-09T03:29:49.221Z,12.82
2023-04-09T03:30:23.320Z,12.91
2023-04-09T03:31:10.245Z,12.97
2023-04-09T03:31:44.416Z,12.91
2023-04-09T03:32:31.252Z,12.98
2023-04-09T03:33:05.399Z,12.92
2023-04-09T03:33:52.235Z,13.02
2023-04-09T03:34:26.350Z,13.00
2023-04-09T03:35:14.234Z,12.96
2023-04-09T03:35:48.346Z,13.07
2023-04-09T03:36:35.260Z,13.10
2023-04-09T03:37:09.360Z,12.95
2023-04-09T03:37:56.231Z,13.10
2023-04-09T03:38:30.360Z,13.08
2023-04-09T03:39:17.200Z,12.88
2023-04-09T03:39:51.386Z,12.89
2023-04-09T03:40:40.216Z,12.98
2023-04-09T03:41:14.306Z,13.07
2023-04-09T03:42:03.244Z,13.05
2023-04-09T03:42:37.471Z,13.12
2023-04-09T03:43:18.259Z,13.10
2023-04-09T03:43:58.362Z,13.02
2023-04-09T03:44:38.224Z,13.05
2023-04-09T03:45:18.288Z,12.97
2023-04-09T03:45:59.232Z,12.97
2023-04-09T03:46:39.366Z,12.98
2023-04-09T03:47:20.269Z,12.90
2023-04-09T03:48:00.334Z,12.94
2023-04-09T03:48:40.248Z,12.90
2023-04-09T03:49:20.444Z,12.93
2023-04-09T03:50:01.282Z,12.90
2023-04-09T03:50:48.345Z,12.90
2023-04-09T03:51:29.207Z,12.76
2023-04-09T03:52:09.355Z,12.79
2023-04-09T03:52:49.242Z,12.86
2023-04-09T03:53:29.312Z,12.92
2023-04-09T03:54:09.256Z,12.81
2023-04-09T03:54:49.291Z,12.86
2023-04-09T03:55:30.261Z,12.81
2023-04-09T03:56:10.309Z,12.74
2023-04-09T03:56:50.214Z,12.80
2023-04-09T03:57:30.501Z,12.66
2023-04-09T03:58:10.206Z,12.76
2023-04-09T03:58:51.587Z,12.72
2023-04-09T03:59:33.205Z,12.69
2023-04-09T04:00:14.284Z,12.77
2023-04-09T04:00:55.207Z,12.82
2023-04-09T04:01:35.389Z,12.73
2023-04-09T04:03:19.254Z,12.61
2023-04-09T04:03:53.362Z,12.83
2023-04-09T04:04:40.266Z,12.87
2023-04-09T04:05:17.357Z,12.76
2023-04-09T04:06:11.212Z,12.81
2023-04-09T04:06:45.321Z,12.83
2023-04-09T04:07:32.199Z,12.86
2023-04-09T04:08:06.259Z,12.95
2023-04-09T04:08:53.331Z,12.88
2023-04-09T04:09:27.246Z,12.90
2023-04-09T04:10:07.205Z,12.94
2023-04-09T04:10:47.285Z,12.94
2023-04-09T04:11:28.182Z,12.92
2023-04-09T04:12:08.289Z,12.98
2023-04-09T04:12:48.246Z,12.92
2023-04-09T04:13:28.377Z,12.95
2023-04-09T04:14:08.190Z,13.00
2023-04-09T04:14:48.276Z,13.03
2023-04-09T04:15:28.208Z,13.07
2023-04-09T04:16:09.307Z,13.01
2023-04-09T04:16:49.204Z,13.15
2023-04-09T04:17:29.314Z,13.06
2023-04-09T04:18:09.157Z,13.02
2023-04-09T04:18:49.346Z,12.99
2023-04-09T04:19:29.204Z,12.91
2023-04-09T04:20:24.187Z,13.08
2023-04-09T04:21:04.280Z,12.99
2023-04-09T04:21:44.269Z,12.95
2023-04-09T04:22:26.105Z,12.88
2023-04-09T04:23:06.647Z,12.78
2023-04-09T04:23:47.209Z,12.84
2023-04-09T04:24:27.242Z,12.90
2023-04-09T04:25:07.174Z,12.83
2023-04-09T04:25:50.713Z,12.90
2023-04-09T04:26:32.215Z,12.90
2023-04-09T04:27:12.276Z,12.91
2023-04-09T04:27:53.181Z,12.95
2023-04-09T04:28:33.261Z,12.80
2023-04-09T04:29:13.156Z,12.81
2023-04-09T04:29:53.237Z,12.54
2023-04-09T04:30:33.163Z,12.80
2023-04-09T04:31:19.319Z,12.90
2023-04-09T04:32:00.391Z,12.97
2023-04-09T04:32:40.436Z,12.84
2023-04-09T04:33:20.164Z,12.90
2023-04-09T04:34:00.281Z,13.00
2023-04-09T04:34:40.179Z,12.97
2023-04-09T04:35:21.336Z,12.89
2023-04-09T04:36:18.168Z,12.81
2023-04-09T04:36:58.253Z,12.74
2023-04-09T04:37:40.175Z,12.83
2023-04-09T04:38:20.264Z,12.81
2023-04-09T04:39:00.217Z,12.61
2023-04-09T04:39:40.467Z,12.47
2023-04-09T04:40:21.186Z,12.57
2023-04-09T04:41:01.355Z,12.48
2023-04-09T04:41:41.149Z,12.51
2023-04-09T04:42:21.293Z,12.37
2023-04-09T04:43:01.178Z,12.54
2023-04-09T04:43:41.556Z,12.34
2023-04-09T04:44:22.242Z,12.51
2023-04-09T04:45:02.306Z,12.36
2023-04-09T04:45:42.193Z,12.33
2023-04-09T04:46:22.283Z,12.37
2023-04-09T04:47:02.149Z,12.54
2023-04-09T04:47:42.279Z,12.57
2023-04-09T04:48:23.146Z,12.63
2023-04-09T04:49:03.551Z,12.67
2023-04-09T04:49:44.146Z,12.59
2023-04-09T04:50:24.243Z,12.49
2023-04-09T04:51:07.196Z,12.40
2023-04-09T04:51:47.290Z,12.20
2023-04-09T04:52:28.179Z,12.28
2023-04-09T04:53:08.297Z,12.41
2023-04-09T04:53:48.182Z,12.28
2023-04-09T04:54:28.366Z,12.20
2023-04-09T04:55:08.140Z,12.36
2023-04-09T04:55:48.228Z,12.44
2023-04-09T04:56:29.300Z,12.49
2023-04-09T04:57:10.210Z,12.51
2023-04-09T04:57:50.158Z,12.61
2023-04-09T04:58:31.464Z,12.61
2023-04-09T04:59:12.168Z,12.65
2023-04-09T04:59:52.252Z,12.55
2023-04-09T05:00:33.141Z,12.60
2023-04-09T05:01:13.308Z,12.39
2023-04-09T05:01:53.293Z,12.43
2023-04-09T05:02:33.480Z,12.39
2023-04-09T05:03:13.195Z,12.41
2023-04-09T05:03:53.576Z,12.39
2023-04-09T05:04:34.204Z,12.32
2023-04-09T05:05:14.259Z,12.27
2023-04-09T05:05:55.225Z,12.36
2023-04-09T05:06:35.314Z,12.32
2023-04-09T05:07:15.147Z,12.44
2023-04-09T05:07:55.235Z,12.46
2023-04-09T05:08:36.115Z,12.54
2023-04-09T05:09:16.324Z,12.64
2023-04-09T05:09:57.335Z,12.59
2023-04-09T05:10:37.351Z,12.61
2023-04-09T05:11:21.162Z,12.48
2023-04-09T05:12:01.801Z,12.36
2023-04-09T05:12:43.155Z,12.48
2023-04-09T05:13:23.294Z,12.60
2023-04-09T05:14:03.138Z,12.64
2023-04-09T05:14:43.194Z,12.62
2023-04-09T05:15:23.151Z,12.62
2023-04-09T05:16:03.701Z,12.64
2023-04-09T05:16:45.194Z,12.66
2023-04-09T05:17:25.317Z,12.47
2023-04-09T05:18:06.107Z,12.63
2023-04-09T05:18:46.277Z,12.70
2023-04-09T05:19:26.137Z,12.71
2023-04-09T05:20:06.345Z,12.67
2023-04-09T05:20:47.141Z,12.72
2023-04-09T05:21:27.666Z,12.63
2023-04-09T05:22:08.108Z,12.59
2023-04-09T05:22:48.299Z,12.46
2023-04-09T05:23:28.119Z,12.39
2023-04-09T05:24:08.228Z,12.38
2023-04-09T05:24:49.122Z,12.36
2023-04-09T05:25:29.213Z,12.37
2023-04-09T05:26:09.250Z,12.43
2023-04-09T05:26:49.235Z,12.45
2023-04-09T05:27:37.110Z,12.34
2023-04-09T05:28:11.371Z,12.47
2023-04-09T05:28:59.174Z,12.32
2023-04-09T05:29:33.245Z,12.23
2023-04-09T05:30:20.125Z,12.18
2023-04-09T05:30:54.242Z,12.10
2023-04-09T05:31:34.160Z,12.10
2023-04-09T05:32:14.187Z,12.16
2023-04-09T05:32:55.354Z,12.17
2023-04-09T05:33:38.226Z,12.25
2023-04-09T05:34:25.126Z,12.28
2023-04-09T05:35:01.650Z,12.31
2023-04-09T05:35:53.139Z,12.37
2023-04-09T05:36:27.509Z,12.47
2023-04-09T05:37:08.132Z,12.24
2023-04-09T05:37:42.280Z,12.21
2023-04-09T05:38:15.859Z,12.13
2023-04-09T05:38:56.296Z,12.18
2023-04-09T05:39:30.248Z,12.08
2023-04-09T05:40:04.412Z,12.10
2023-04-09T05:40:44.168Z,12.18
2023-04-09T05:41:18.286Z,12.25
2023-04-09T05:41:52.574Z,12.22
2023-04-09T05:42:32.250Z,12.14
2023-04-09T05:43:09.282Z,12.25
2023-04-09T05:43:43.243Z,12.19
2023-04-09T05:44:23.130Z,12.01
2023-04-09T05:44:57.408Z,12.07
2023-04-09T05:45:31.856Z,12.18
2023-04-09T05:46:13.235Z,12.21
2023-04-09T05:46:47.326Z,12.25
2023-04-09T05:47:20.999Z,12.25
2023-04-09T05:48:01.184Z,12.20
2023-04-09T05:48:35.241Z,12.27
2023-04-09T05:49:08.939Z,12.31
2023-04-09T05:49:50.236Z,12.08
2023-04-09T05:50:30.411Z,12.11
2023-04-09T05:51:11.112Z,11.99
2023-04-09T05:51:51.221Z,12.16
2023-04-09T05:52:31.090Z,12.14
2023-04-09T05:53:20.334Z,11.92
2023-04-09T05:53:54.873Z,11.90
2023-04-09T05:54:43.198Z,11.80
2023-04-09T05:55:17.012Z,11.72
2023-04-09T05:56:04.170Z,11.76
2023-04-09T05:56:37.989Z,11.50
2023-04-09T05:57:25.171Z,11.61
2023-04-09T05:58:00.959Z,11.53
2023-04-09T05:58:42.154Z,11.72
2023-04-09T05:59:16.181Z,11.65
2023-04-09T05:59:49.873Z,11.57
2023-04-09T06:00:33.724Z,11.51
2023-04-09T06:01:07.312Z,11.55
2023-04-09T06:01:42.302Z,11.29
2023-04-09T06:02:25.618Z,11.46
2023-04-09T06:02:59.316Z,11.49
2023-04-09T06:03:32.941Z,11.37
2023-04-09T06:04:13.366Z,11.41
2023-04-09T06:04:47.239Z,11.41
2023-04-09T06:05:22.149Z,11.45
2023-04-09T06:06:05.096Z,11.46
2023-04-09T06:06:39.218Z,11.29
2023-04-09T06:07:12.860Z,11.27
2023-04-09T06:07:54.116Z,11.14
2023-04-09T06:08:28.186Z,11.34
2023-04-09T06:09:01.848Z,11.38
2023-04-09T06:09:49.936Z,11.32
2023-04-09T06:10:24.227Z,11.27
2023-04-09T06:10:59.629Z,11.21
2023-04-09T06:11:41.086Z,11.17
2023-04-09T06:12:15.821Z,11.29
2023-04-09T06:12:49.837Z,11.32
2023-04-09T06:13:31.089Z,11.28
2023-04-09T06:14:09.280Z,11.23
2023-04-09T06:14:42.843Z,11.34
2023-04-09T06:15:24.156Z,11.27
2023-04-09T06:15:58.197Z,11.27
2023-04-09T06:16:36.392Z,11.24
2023-04-09T06:17:17.160Z,11.23
2023-04-09T06:17:51.200Z,11.26
2023-04-09T06:18:24.907Z,11.29
2023-04-09T06:19:05.080Z,11.34
2023-04-09T06:19:39.158Z,11.36
2023-04-09T06:20:12.830Z,11.35
2023-04-09T06:20:53.180Z,11.33
2023-04-09T06:21:27.458Z,11.20
2023-04-09T06:22:02.008Z,11.23
2023-04-09T06:22:42.181Z,11.38
2023-04-09T06:23:16.283Z,11.36
2023-04-09T06:23:50.542Z,11.25
2023-04-09T06:24:31.364Z,11.27
2023-04-09T06:25:05.262Z,11.42
2023-04-09T06:25:40.087Z,11.46
2023-04-09T06:26:23.158Z,11.50
2023-04-09T06:26:57.242Z,11.29
2023-04-09T06:27:33.249Z,11.37
2023-04-09T06:28:15.171Z,11.39
2023-04-09T06:28:49.194Z,11.30
2023-04-09T06:29:24.578Z,11.25
2023-04-09T06:30:05.080Z,11.37
2023-04-09T06:30:39.234Z,11.47
2023-04-09T06:31:12.882Z,11.41
2023-04-09T06:31:54.082Z,11.46
2023-04-09T06:32:28.296Z,11.48
2023-04-09T06:33:01.876Z,11.31
2023-04-09T06:33:43.043Z,11.48
2023-04-09T06:34:17.256Z,11.58
2023-04-09T06:34:50.811Z,11.70
2023-04-09T06:35:31.364Z,11.69
2023-04-09T06:36:06.258Z,11.69
2023-04-09T06:36:54.082Z,11.69
2023-04-09T06:37:35.707Z,11.72
2023-04-09T06:38:17.097Z,11.68
2023-04-09T06:38:57.712Z,11.82
2023-04-09T06:39:42.480Z,11.73
2023-04-09T06:40:28.242Z,11.85
2023-04-09T06:41:10.268Z,11.86
2023-04-09T06:41:51.167Z,11.73
2023-04-09T06:42:31.080Z,11.71
2023-04-09T06:43:12.186Z,11.74
2023-04-09T06:43:52.208Z,11.77
2023-04-09T06:44:33.250Z,11.69
2023-04-09T06:45:17.230Z,11.81
2023-04-09T06:45:58.395Z,11.77
2023-04-09T06:46:39.076Z,11.62
2023-04-09T06:47:19.289Z,11.46
2023-04-09T06:48:07.083Z,11.73
2023-04-09T06:48:42.494Z,11.74
2023-04-09T06:49:29.049Z,11.85
2023-04-09T06:50:03.225Z,11.94
2023-04-09T06:50:51.094Z,12.09
2023-04-09T06:51:25.292Z,12.05
2023-04-09T06:52:14.037Z,12.03
2023-04-09T06:52:48.140Z,11.91
2023-04-09T06:53:28.081Z,11.90
2023-04-09T06:54:08.144Z,11.90
2023-04-09T06:54:49.070Z,11.94
2023-04-09T06:55:29.382Z,11.85
2023-04-09T06:56:10.069Z,11.89
2023-04-09T06:56:50.294Z,11.92
2023-04-09T06:57:30.038Z,11.91
2023-04-09T06:58:11.292Z,11.98
2023-04-09T06:58:51.089Z,12.04
2023-04-09T06:59:31.116Z,11.81
2023-04-09T07:00:12.053Z,12.00
2023-04-09T07:00:53.138Z,12.02
2023-04-09T07:01:34.123Z,11.82
2023-04-09T07:02:16.286Z,12.01
2023-04-09T07:02:57.214Z,11.92
2023-04-09T07:03:38.341Z,11.91
2023-04-09T07:04:19.160Z,11.88
2023-04-09T07:04:59.091Z,11.89
2023-04-09T07:05:40.050Z,11.98
2023-04-09T07:06:21.205Z,12.07
2023-04-09T07:07:03.051Z,12.07
2023-04-09T07:07:43.185Z,12.04
2023-04-09T07:08:23.085Z,12.17
2023-04-09T07:09:03.255Z,12.20
2023-04-09T07:09:43.045Z,12.11
2023-04-09T07:10:24.103Z,12.07
2023-04-09T07:11:05.050Z,12.21
2023-04-09T07:11:45.423Z,12.22
2023-04-09T07:12:40.034Z,12.10
2023-04-09T07:13:20.660Z,12.02
2023-04-09T07:14:03.038Z,11.96
2023-04-09T07:14:50.110Z,12.06
2023-04-09T07:15:44.232Z,12.12
2023-04-09T07:16:39.059Z,11.93
2023-04-09T07:17:34.148Z,11.99
2023-04-09T07:18:28.053Z,12.09
2023-04-09T07:19:22.044Z,12.16
2023-04-09T07:20:10.040Z,12.18
2023-04-09T07:20:44.279Z,12.27
2023-04-09T07:21:31.034Z,12.13
2023-04-09T07:22:05.247Z,12.18
2023-04-09T07:22:52.044Z,12.20
2023-04-09T07:23:26.286Z,12.20
2023-04-09T07:24:14.030Z,12.19
2023-04-09T07:24:53.508Z,12.29
2023-04-09T07:25:33.024Z,12.27
2023-04-09T07:26:14.141Z,12.28
2023-04-09T07:26:54.037Z,12.34
2023-04-09T07:27:35.141Z,12.31
2023-04-09T07:28:16.022Z,12.37
2023-04-09T07:28:56.213Z,12.34
2023-04-09T07:29:36.013Z,12.36
2023-04-09T07:30:17.122Z,12.38
2023-04-09T07:30:58.112Z,12.44
2023-04-09T07:31:38.330Z,12.46
2023-04-09T07:32:19.073Z,12.44
2023-04-09T07:32:59.318Z,12.43
2023-04-09T07:33:39.101Z,12.46
2023-04-09T07:34:20.134Z,12.45
2023-04-09T07:35:02.045Z,12.51
2023-04-09T07:35:42.328Z,12.37
2023-04-09T07:36:23.102Z,12.44
2023-04-09T07:37:03.117Z,12.40
2023-04-09T07:37:44.040Z,12.40
2023-04-09T07:38:25.103Z,12.27
2023-04-09T07:39:04.993Z,12.20
2023-04-09T07:39:45.289Z,12.19
2023-04-09T07:40:25.804Z,11.98
2023-04-09T07:41:06.239Z,12.07
2023-04-09T07:41:46.329Z,12.08
2023-04-09T07:42:27.340Z,12.03
2023-04-09T07:43:07.019Z,11.96
2023-04-09T07:43:48.217Z,12.03
2023-04-09T07:44:28.023Z,11.91
2023-04-09T07:45:08.175Z,11.85
2023-04-09T07:45:48.034Z,11.78
2023-04-09T07:46:29.122Z,11.70
2023-04-09T07:47:11.020Z,11.75
2023-04-09T07:47:51.689Z,11.74
2023-04-09T07:48:31.993Z,11.70
2023-04-09T07:49:12.219Z,11.77
2023-04-09T07:49:54.013Z,11.68
2023-04-09T07:50:34.122Z,11.59
2023-04-09T07:51:14.980Z,11.65
2023-04-09T07:51:55.353Z,11.64
2023-04-09T07:52:34.989Z,11.68
2023-04-09T07:53:15.206Z,11.57
2023-04-09T07:53:56.002Z,11.53
2023-04-09T07:54:36.076Z,11.76
2023-04-09T07:55:18.438Z,11.70
2023-04-09T07:55:59.070Z,11.77
2023-04-09T07:56:38.991Z,11.60
2023-04-09T07:57:19.290Z,11.66
2023-04-09T07:58:00.061Z,11.59
2023-04-09T07:58:41.246Z,11.64
2023-04-09T07:59:23.986Z,11.73
2023-04-09T08:00:04.134Z,11.54
2023-04-09T08:00:44.078Z,11.43
2023-04-09T08:01:26.052Z,11.50
2023-04-09T08:02:07.112Z,11.52
2023-04-09T08:02:48.246Z,11.47
2023-04-09T08:03:30.212Z,11.52
2023-04-09T08:04:13.042Z,11.64
2023-04-09T08:04:53.037Z,11.67
2023-04-09T08:05:33.095Z,11.55
2023-04-09T08:06:14.042Z,11.66
2023-04-09T08:06:55.283Z,11.66
2023-04-09T08:07:35.147Z,11.76
2023-04-09T08:08:15.362Z,11.75
2023-04-09T08:08:55.193Z,11.66
2023-04-09T08:09:35.378Z,11.70
2023-04-09T08:10:19.957Z,11.82
2023-04-09T08:11:00.226Z,11.87
2023-04-09T08:11:39.963Z,11.90
2023-04-09T08:12:20.137Z,11.90
2023-04-09T08:13:00.031Z,11.90
2023-04-09T08:13:40.567Z,11.88
2023-04-09T08:14:22.987Z,12.02
2023-04-09T08:15:03.848Z,12.01
2023-04-09T08:15:43.980Z,12.08
2023-04-09T08:16:24.615Z,12.16
2023-04-09T08:17:06.025Z,12.17
2023-04-09T08:17:48.080Z,12.24
2023-04-09T08:18:28.242Z,12.18
2023-04-09T08:19:09.102Z,12.12
2023-04-09T08:19:56.375Z,12.19
2023-04-09T08:20:37.158Z,12.30
2023-04-09T08:21:16.982Z,12.29
2023-04-09T08:21:58.734Z,12.29
2023-04-09T08:22:41.040Z,12.32
2023-04-09T08:23:22.182Z,12.39
2023-04-09T08:24:08.040Z,12.21
2023-04-09T08:24:49.033Z,12.37
2023-04-09T08:25:30.031Z,12.29
2023-04-09T08:26:10.334Z,12.36
2023-04-09T08:26:50.964Z,12.44
2023-04-09T08:27:33.176Z,12.40
2023-04-09T08:28:13.019Z,12.31
2023-04-09T08:28:53.200Z,12.38
2023-04-09T08:29:33.981Z,12.22
2023-04-09T08:30:16.854Z,12.35
2023-04-09T08:30:58.040Z,12.38
2023-04-09T08:31:39.259Z,12.37
2023-04-09T08:32:18.998Z,12.44
2023-04-09T08:32:59.240Z,12.54
2023-04-09T08:33:38.967Z,12.45
2023-04-09T08:34:21.142Z,12.45
2023-04-09T08:35:00.922Z,12.50
2023-04-09T08:35:41.509Z,12.54
2023-04-09T08:36:22.983Z,12.55
2023-04-09T08:37:03.086Z,12.55
2023-04-09T08:37:42.972Z,12.63
2023-04-09T08:38:23.018Z,12.66
2023-04-09T08:39:04.164Z,12.62
2023-04-09T08:39:45.293Z,12.74
2023-04-09T08:40:25.007Z,12.71
2023-04-09T08:41:05.165Z,12.72
2023-04-09T08:41:50.977Z,12.80
2023-04-09T08:42:31.999Z,12.59
2023-04-09T08:43:14.121Z,12.83
2023-04-09T08:43:58.219Z,12.82
2023-04-09T08:44:38.944Z,12.83
2023-04-09T08:45:20.028Z,12.78
2023-04-09T08:46:03.971Z,12.89
2023-04-09T08:46:44.739Z,12.99
2023-04-09T08:47:27.020Z,12.82
2023-04-09T08:48:24.055Z,12.93
2023-04-09T08:49:18.038Z,12.76
2023-04-09T08:50:12.101Z,12.90
2023-04-09T08:51:06.918Z,12.81
2023-04-09T08:52:03.982Z,12.90
2023-04-09T08:52:55.141Z,13.00
2023-04-09T08:53:30.059Z,13.02
2023-04-09T08:54:26.980Z,13.02
2023-04-09T08:55:01.330Z,12.98
2023-04-09T08:55:51.917Z,13.00
2023-04-09T08:56:27.044Z,13.04
2023-04-09T08:57:14.004Z,13.03
2023-04-09T08:57:49.003Z,13.05
2023-04-09T08:58:28.954Z,13.07
2023-04-09T08:59:09.042Z,12.94
2023-04-09T08:59:52.929Z,13.07
2023-04-09T09:00:33.160Z,13.05
2023-04-09T09:01:46.118Z,13.01
2023-04-09T09:02:29.160Z,13.00
2023-04-09T09:03:15.090Z,12.89
2023-04-09T09:04:07.146Z,12.85